sensor_id;sensor_type;location;lat;lon;timestamp;noise_LAeq;noise_LA_min;noise_LA_max;noise_LA01;noise_LA95
4048;Laerm;2038;51.728;6.674;2024-03-17T00:00:28;35.72;26.91;39.21;;
4048;Laerm;2038;51.728;6.674;2024-03-17T00:02:54;35.74;23.90;39.34;;
4048;Laerm;2038;51.728;6.674;2024-03-17T00:05:21;35.73;26.91;39.21;;
4048;Laerm;2038;51.728;6.674;2024-03-17T00:07:48;35.73;23.90;39.70;;
4048;Laerm;2038;51.728;6.674;2024-03-17T00:10:14;35.73;5.00;39.21;;
4048;Laerm;2038;51.728;6.674;2024-03-17T00:12:41;35.68;23.90;39.21;;
4048;Laerm;2038;51.728;6.674;2024-03-17T00:15:08;35.74;23.90;39.34;;
4048;Laerm;2038;51.728;6.674;2024-03-17T00:17:35;35.73;26.91;39.46;;
4048;Laerm;2038;51.728;6.674;2024-03-17T00:20:05;35.69;26.91;39.08;;
4048;Laerm;2038;51.728;6.674;2024-03-17T00:22:36;35.71;23.90;39.08;;
4048;Laerm;2038;51.728;6.674;2024-03-17T00:25:07;35.71;23.90;39.21;;
4048;Laerm;2038;51.728;6.674;2024-03-17T00:27:35;35.73;5.00;39.11;;
4048;Laerm;2038;51.728;6.674;2024-03-17T00:30:07;35.72;23.90;39.46;;
4048;Laerm;2038;51.728;6.674;2024-03-17T00:32:42;35.71;5.00;39.21;;
4048;Laerm;2038;51.728;6.674;2024-03-17T00:35:10;35.72;26.91;39.46;;
4048;Laerm;2038;51.728;6.674;2024-03-17T00:37:40;35.73;23.90;39.81;;
4048;Laerm;2038;51.728;6.674;2024-03-17T00:40:06;35.76;23.90;39.58;;
4048;Laerm;2038;51.728;6.674;2024-03-17T00:42:33;35.72;26.91;39.21;;
4048;Laerm;2038;51.728;6.674;2024-03-17T00:44:59;35.73;26.91;38.95;;
4048;Laerm;2038;51.728;6.674;2024-03-17T00:47:26;35.74;26.91;39.08;;
4048;Laerm;2038;51.728;6.674;2024-03-17T00:49:52;35.73;23.90;39.08;;
4048;Laerm;2038;51.728;6.674;2024-03-17T00:52:18;35.72;26.91;38.81;;
4048;Laerm;2038;51.728;6.674;2024-03-17T00:54:47;35.72;23.90;39.08;;
4048;Laerm;2038;51.728;6.674;2024-03-17T00:57:15;35.72;26.91;39.21;;
4048;Laerm;2038;51.728;6.674;2024-03-17T00:59:44;35.70;23.90;39.21;;
4048;Laerm;2038;51.728;6.674;2024-03-17T01:02:15;35.71;23.90;39.08;;
4048;Laerm;2038;51.728;6.674;2024-03-17T01:04:45;35.73;26.91;39.58;;
4048;Laerm;2038;51.728;6.674;2024-03-17T01:07:12;35.71;23.90;39.08;;
4048;Laerm;2038;51.728;6.674;2024-03-17T01:09:38;35.70;26.91;39.08;;
4048;Laerm;2038;51.728;6.674;2024-03-17T01:12:05;35.70;23.90;39.34;;
4048;Laerm;2038;51.728;6.674;2024-03-17T01:14:34;35.71;23.90;39.08;;
4048;Laerm;2038;51.728;6.674;2024-03-17T01:17:01;35.71;26.91;39.21;;
4048;Laerm;2038;51.728;6.674;2024-03-17T01:19:31;35.74;23.90;39.21;;
4048;Laerm;2038;51.728;6.674;2024-03-17T01:22:01;35.69;23.90;39.21;;
4048;Laerm;2038;51.728;6.674;2024-03-17T01:24:28;35.72;23.90;39.46;;
4048;Laerm;2038;51.728;6.674;2024-03-17T01:27:01;35.71;26.91;39.81;;
4048;Laerm;2038;51.728;6.674;2024-03-17T01:29:28;35.70;5.00;39.08;;
4048;Laerm;2038;51.728;6.674;2024-03-17T01:31:54;35.76;26.91;39.08;;
4048;Laerm;2038;51.728;6.674;2024-03-17T01:34:22;35.70;23.90;39.08;;
4048;Laerm;2038;51.728;6.674;2024-03-17T01:36:48;35.73;23.90;38.95;;
4048;Laerm;2038;51.728;6.674;2024-03-17T01:39:14;35.69;23.90;39.21;;
4048;Laerm;2038;51.728;6.674;2024-03-17T01:41:42;35.73;26.91;39.08;;
4048;Laerm;2038;51.728;6.674;2024-03-17T01:44:22;35.69;23.90;39.46;;
4048;Laerm;2038;51.728;6.674;2024-03-17T01:46:50;35.70;26.91;38.95;;
4048;Laerm;2038;51.728;6.674;2024-03-17T01:49:17;35.71;23.90;39.08;;
4048;Laerm;2038;51.728;6.674;2024-03-17T01:51:45;35.73;26.56;39.08;;
4048;Laerm;2038;51.728;6.674;2024-03-17T01:54:13;35.71;5.00;39.08;;
4048;Laerm;2038;51.728;6.674;2024-03-17T01:56:41;35.73;26.91;38.95;;
4048;Laerm;2038;51.728;6.674;2024-03-17T01:59:09;35.71;26.91;38.95;;
4048;Laerm;2038;51.728;6.674;2024-03-17T02:01:37;35.71;26.91;39.11;;
4048;Laerm;2038;51.728;6.674;2024-03-17T02:04:05;35.70;5.00;38.81;;
4048;Laerm;2038;51.728;6.674;2024-03-17T02:06:32;35.72;23.90;39.58;;
4048;Laerm;2038;51.728;6.674;2024-03-17T02:08:58;35.72;23.90;39.34;;
4048;Laerm;2038;51.728;6.674;2024-03-17T02:11:32;35.71;5.00;39.70;;
4048;Laerm;2038;51.728;6.674;2024-03-17T02:13:59;35.71;26.91;39.34;;
4048;Laerm;2038;51.728;6.674;2024-03-17T02:16:27;35.71;23.90;39.58;;
4048;Laerm;2038;51.728;6.674;2024-03-17T02:18:57;35.73;26.91;39.08;;
4048;Laerm;2038;51.728;6.674;2024-03-17T02:21:25;35.69;26.56;39.08;;
4048;Laerm;2038;51.728;6.674;2024-03-17T02:23:55;35.72;26.91;39.08;;
4048;Laerm;2038;51.728;6.674;2024-03-17T02:26:25;35.70;23.55;39.34;;
4048;Laerm;2038;51.728;6.674;2024-03-17T02:28:51;35.69;26.91;39.58;;
4048;Laerm;2038;51.728;6.674;2024-03-17T02:31:18;35.72;23.90;39.21;;
4048;Laerm;2038;51.728;6.674;2024-03-17T02:33:45;35.70;26.91;40.13;;
4048;Laerm;2038;51.728;6.674;2024-03-17T02:36:12;35.69;26.91;39.21;;
4048;Laerm;2038;51.728;6.674;2024-03-17T02:38:40;35.70;26.91;39.57;;
4048;Laerm;2038;51.728;6.674;2024-03-17T02:41:25;35.68;26.91;39.21;;
4048;Laerm;2038;51.728;6.674;2024-03-17T02:43:51;35.74;23.90;39.34;;
4048;Laerm;2038;51.728;6.674;2024-03-17T02:46:19;35.73;23.55;39.34;;
4048;Laerm;2038;51.728;6.674;2024-03-17T02:48:49;35.70;23.90;38.95;;
4048;Laerm;2038;51.728;6.674;2024-03-17T02:51:17;35.71;23.90;38.95;;
4048;Laerm;2038;51.728;6.674;2024-03-17T02:53:46;35.70;5.00;38.95;;
4048;Laerm;2038;51.728;6.674;2024-03-17T02:56:14;35.71;23.90;39.70;;
4048;Laerm;2038;51.728;6.674;2024-03-17T02:58:46;35.71;5.00;39.08;;
4048;Laerm;2038;51.728;6.674;2024-03-17T03:01:13;35.72;5.00;39.57;;
4048;Laerm;2038;51.728;6.674;2024-03-17T03:03:41;35.69;5.00;39.58;;
4048;Laerm;2038;51.728;6.674;2024-03-17T03:06:07;35.70;23.90;39.70;;
4048;Laerm;2038;51.728;6.674;2024-03-17T03:08:39;35.72;23.90;39.46;;
4048;Laerm;2038;51.728;6.674;2024-03-17T03:11:09;35.70;26.91;39.08;;
4048;Laerm;2038;51.728;6.674;2024-03-17T03:13:42;35.74;26.91;39.08;;
4048;Laerm;2038;51.728;6.674;2024-03-17T03:16:14;35.70;23.90;39.08;;
4048;Laerm;2038;51.728;6.674;2024-03-17T03:18:41;35.66;23.55;39.34;;
4048;Laerm;2038;51.728;6.674;2024-03-17T03:21:08;35.70;23.90;39.46;;
4048;Laerm;2038;51.728;6.674;2024-03-17T03:23:35;35.70;23.90;39.21;;
4048;Laerm;2038;51.728;6.674;2024-03-17T03:26:03;35.73;5.00;39.34;;
4048;Laerm;2038;51.728;6.674;2024-03-17T03:28:32;35.68;5.00;39.35;;
4048;Laerm;2038;51.728;6.674;2024-03-17T03:30:59;35.64;23.90;39.34;;
4048;Laerm;2038;51.728;6.674;2024-03-17T03:33:26;35.67;5.00;39.21;;
4048;Laerm;2038;51.728;6.674;2024-03-17T03:35:53;35.71;23.90;39.08;;
4048;Laerm;2038;51.728;6.674;2024-03-17T03:38:19;35.72;26.91;40.13;;
4048;Laerm;2038;51.728;6.674;2024-03-17T03:40:46;35.68;26.91;39.08;;
4048;Laerm;2038;51.728;6.674;2024-03-17T03:43:14;35.67;26.91;38.95;;
4048;Laerm;2038;51.728;6.674;2024-03-17T03:45:41;35.68;26.91;39.08;;
4048;Laerm;2038;51.728;6.674;2024-03-17T03:48:08;35.66;23.90;39.46;;
4048;Laerm;2038;51.728;6.674;2024-03-17T03:50:35;35.69;23.90;39.34;;
4048;Laerm;2038;51.728;6.674;2024-03-17T03:53:01;35.68;23.90;39.46;;
4048;Laerm;2038;51.728;6.674;2024-03-17T03:55:28;35.66;26.91;40.13;;
4048;Laerm;2038;51.728;6.674;2024-03-17T03:57:55;35.71;23.55;39.34;;
4048;Laerm;2038;51.728;6.674;2024-03-17T04:00:22;35.73;23.90;39.11;;
4048;Laerm;2038;51.728;6.674;2024-03-17T04:02:51;35.72;23.90;39.46;;
4048;Laerm;2038;51.728;6.674;2024-03-17T04:05:19;35.67;23.90;39.34;;
4048;Laerm;2038;51.728;6.674;2024-03-17T04:07:47;35.69;23.90;39.34;;
4048;Laerm;2038;51.728;6.674;2024-03-17T04:10:15;35.71;26.91;39.58;;
4048;Laerm;2038;51.728;6.674;2024-03-17T04:12:44;35.69;5.00;39.08;;
4048;Laerm;2038;51.728;6.674;2024-03-17T04:15:11;35.74;26.91;39.21;;
4048;Laerm;2038;51.728;6.674;2024-03-17T04:17:37;35.69;26.91;39.21;;
4048;Laerm;2038;51.728;6.674;2024-03-17T04:20:05;35.73;26.91;39.34;;
4048;Laerm;2038;51.728;6.674;2024-03-17T04:22:34;35.69;23.90;39.46;;
4048;Laerm;2038;51.728;6.674;2024-03-17T04:25:01;35.70;5.00;39.34;;
4048;Laerm;2038;51.728;6.674;2024-03-17T04:27:27;35.73;26.91;39.21;;
4048;Laerm;2038;51.728;6.674;2024-03-17T04:29:57;35.71;23.90;39.21;;
4048;Laerm;2038;51.728;6.674;2024-03-17T04:32:24;35.71;23.90;38.95;;
4048;Laerm;2038;51.728;6.674;2024-03-17T04:34:50;35.75;26.91;39.21;;
4048;Laerm;2038;51.728;6.674;2024-03-17T04:37:17;35.71;26.91;39.08;;
4048;Laerm;2038;51.728;6.674;2024-03-17T04:39:46;35.70;23.90;39.46;;
4048;Laerm;2038;51.728;6.674;2024-03-17T04:42:15;35.67;26.91;39.58;;
4048;Laerm;2038;51.728;6.674;2024-03-17T04:44:44;35.74;26.56;39.34;;
4048;Laerm;2038;51.728;6.674;2024-03-17T04:47:11;35.68;23.90;38.87;;
4048;Laerm;2038;51.728;6.674;2024-03-17T04:49:40;35.72;5.00;39.70;;
4048;Laerm;2038;51.728;6.674;2024-03-17T04:52:07;35.67;26.91;39.08;;
4048;Laerm;2038;51.728;6.674;2024-03-17T04:54:34;35.74;26.91;39.46;;
4048;Laerm;2038;51.728;6.674;2024-03-17T04:57:01;35.72;26.91;39.70;;
4048;Laerm;2038;51.728;6.674;2024-03-17T04:59:28;35.71;23.90;39.34;;
4048;Laerm;2038;51.728;6.674;2024-03-17T05:01:54;35.69;26.91;39.21;;
4048;Laerm;2038;51.728;6.674;2024-03-17T05:04:21;35.68;23.90;38.95;;
4048;Laerm;2038;51.728;6.674;2024-03-17T05:06:49;35.72;5.00;39.21;;
4048;Laerm;2038;51.728;6.674;2024-03-17T05:09:19;35.70;5.00;39.92;;
4048;Laerm;2038;51.728;6.674;2024-03-17T05:11:46;35.70;23.90;39.08;;
4048;Laerm;2038;51.728;6.674;2024-03-17T05:14:15;35.70;26.91;39.11;;
4048;Laerm;2038;51.728;6.674;2024-03-17T05:16:42;35.68;23.90;39.08;;
4048;Laerm;2038;51.728;6.674;2024-03-17T05:19:08;35.75;23.90;39.08;;
4048;Laerm;2038;51.728;6.674;2024-03-17T05:21:35;35.71;26.91;38.95;;
4048;Laerm;2038;51.728;6.674;2024-03-17T05:24:02;35.73;26.91;39.46;;
4048;Laerm;2038;51.728;6.674;2024-03-17T05:26:29;35.71;26.91;39.58;;
4048;Laerm;2038;51.728;6.674;2024-03-17T05:28:57;35.73;23.90;39.21;;
4048;Laerm;2038;51.728;6.674;2024-03-17T05:31:24;35.69;26.91;39.23;;
4048;Laerm;2038;51.728;6.674;2024-03-17T05:33:50;35.73;23.90;39.21;;
4048;Laerm;2038;51.728;6.674;2024-03-17T05:36:18;35.74;23.90;39.21;;
4048;Laerm;2038;51.728;6.674;2024-03-17T05:38:46;35.76;23.90;38.95;;
4048;Laerm;2038;51.728;6.674;2024-03-17T05:41:13;35.76;23.90;39.21;;
4048;Laerm;2038;51.728;6.674;2024-03-17T05:43:40;35.72;5.00;39.70;;
4048;Laerm;2038;51.728;6.674;2024-03-17T05:46:12;35.72;23.90;39.21;;
4048;Laerm;2038;51.728;6.674;2024-03-17T05:48:41;35.71;26.91;39.08;;
4048;Laerm;2038;51.728;6.674;2024-03-17T05:51:10;35.72;26.91;39.08;;
4048;Laerm;2038;51.728;6.674;2024-03-17T05:53:38;35.74;26.91;39.34;;
4048;Laerm;2038;51.728;6.674;2024-03-17T05:56:11;35.75;26.91;39.46;;
4048;Laerm;2038;51.728;6.674;2024-03-17T05:58:42;35.74;5.00;39.34;;
4048;Laerm;2038;51.728;6.674;2024-03-17T06:01:08;35.76;26.91;39.46;;
4048;Laerm;2038;51.728;6.674;2024-03-17T06:03:35;35.74;23.90;39.08;;
4048;Laerm;2038;51.728;6.674;2024-03-17T06:06:04;35.74;26.91;39.21;;
4048;Laerm;2038;51.728;6.674;2024-03-17T06:08:30;35.76;28.67;39.21;;
4048;Laerm;2038;51.728;6.674;2024-03-17T06:10:57;35.78;23.90;39.70;;
4048;Laerm;2038;51.728;6.674;2024-03-17T06:13:27;35.74;26.91;39.34;;
4048;Laerm;2038;51.728;6.674;2024-03-17T06:15:54;35.81;5.00;39.08;;
4048;Laerm;2038;51.728;6.674;2024-03-17T06:18:20;35.78;26.91;39.08;;
4048;Laerm;2038;51.728;6.674;2024-03-17T06:20:48;35.76;23.90;39.34;;
4048;Laerm;2038;51.728;6.674;2024-03-17T06:23:15;35.77;23.90;39.34;;
4048;Laerm;2038;51.728;6.674;2024-03-17T06:25:47;35.76;26.91;40.03;;
4048;Laerm;2038;51.728;6.674;2024-03-17T06:28:16;35.77;26.91;39.46;;
4048;Laerm;2038;51.728;6.674;2024-03-17T06:30:55;35.79;23.90;39.21;;
4048;Laerm;2038;51.728;6.674;2024-03-17T06:33:21;35.79;26.91;39.34;;
4048;Laerm;2038;51.728;6.674;2024-03-17T06:35:48;35.74;23.90;39.21;;
4048;Laerm;2038;51.728;6.674;2024-03-17T06:38:15;35.75;26.91;39.21;;
4048;Laerm;2038;51.728;6.674;2024-03-17T06:40:53;35.78;23.90;39.34;;
4048;Laerm;2038;51.728;6.674;2024-03-17T06:43:20;35.78;23.55;39.08;;
4048;Laerm;2038;51.728;6.674;2024-03-17T06:46:00;35.78;23.90;38.95;;
4048;Laerm;2038;51.728;6.674;2024-03-17T06:48:28;35.75;28.67;39.46;;
4048;Laerm;2038;51.728;6.674;2024-03-17T06:50:55;35.79;26.91;39.46;;
4048;Laerm;2038;51.728;6.674;2024-03-17T06:53:23;35.78;23.90;39.58;;
4048;Laerm;2038;51.728;6.674;2024-03-17T06:55:58;35.76;26.91;39.34;;
4048;Laerm;2038;51.728;6.674;2024-03-17T06:58:26;35.78;26.91;39.21;;
4048;Laerm;2038;51.728;6.674;2024-03-17T07:00:55;35.77;26.91;38.81;;
4048;Laerm;2038;51.728;6.674;2024-03-17T07:03:31;35.77;26.91;39.21;;
4048;Laerm;2038;51.728;6.674;2024-03-17T07:05:59;35.79;28.67;39.08;;
4048;Laerm;2038;51.728;6.674;2024-03-17T07:08:29;35.78;23.90;39.58;;
4048;Laerm;2038;51.728;6.674;2024-03-17T07:11:05;35.76;26.91;38.95;;
4048;Laerm;2038;51.728;6.674;2024-03-17T07:13:34;35.81;23.90;39.34;;
4048;Laerm;2038;51.728;6.674;2024-03-17T07:16:03;35.80;23.90;39.21;;
4048;Laerm;2038;51.728;6.674;2024-03-17T07:18:32;35.80;26.91;39.08;;
4048;Laerm;2038;51.728;6.674;2024-03-17T07:21:01;35.78;26.91;39.34;;
4048;Laerm;2038;51.728;6.674;2024-03-17T07:23:32;35.80;23.90;39.21;;
4048;Laerm;2038;51.728;6.674;2024-03-17T07:26:02;35.81;26.91;39.21;;
4048;Laerm;2038;51.728;6.674;2024-03-17T07:28:31;35.81;26.91;39.34;;
4048;Laerm;2038;51.728;6.674;2024-03-17T07:30:59;35.81;26.91;39.34;;
4048;Laerm;2038;51.728;6.674;2024-03-17T07:33:28;35.77;26.91;39.21;;
4048;Laerm;2038;51.728;6.674;2024-03-17T07:35:57;35.78;26.56;39.21;;
4048;Laerm;2038;51.728;6.674;2024-03-17T07:38:28;35.79;23.90;38.95;;
4048;Laerm;2038;51.728;6.674;2024-03-17T07:41:06;35.76;26.91;39.21;;
4048;Laerm;2038;51.728;6.674;2024-03-17T07:43:37;35.79;26.91;39.21;;
4048;Laerm;2038;51.728;6.674;2024-03-17T07:46:11;35.76;26.91;38.95;;
4048;Laerm;2038;51.728;6.674;2024-03-17T07:48:42;35.78;23.90;39.58;;
4048;Laerm;2038;51.728;6.674;2024-03-17T07:51:12;35.78;26.91;39.08;;
4048;Laerm;2038;51.728;6.674;2024-03-17T07:53:41;35.82;23.90;39.34;;
4048;Laerm;2038;51.728;6.674;2024-03-17T07:56:12;35.79;26.91;39.46;;
4048;Laerm;2038;51.728;6.674;2024-03-17T07:58:42;35.84;26.91;39.11;;
4048;Laerm;2038;51.728;6.674;2024-03-17T08:01:15;35.84;26.91;39.58;;
4048;Laerm;2038;51.728;6.674;2024-03-17T08:03:46;35.83;23.90;39.21;;
4048;Laerm;2038;51.728;6.674;2024-03-17T08:06:15;35.85;26.91;39.21;;
4048;Laerm;2038;51.728;6.674;2024-03-17T08:08:41;35.81;26.91;39.46;;
4048;Laerm;2038;51.728;6.674;2024-03-17T08:11:08;35.85;26.91;39.34;;
4048;Laerm;2038;51.728;6.674;2024-03-17T08:13:34;35.85;23.90;39.34;;
4048;Laerm;2038;51.728;6.674;2024-03-17T08:16:07;35.82;28.67;39.46;;
4048;Laerm;2038;51.728;6.674;2024-03-17T08:18:36;35.88;26.56;39.21;;
4048;Laerm;2038;51.728;6.674;2024-03-17T08:21:03;35.85;23.90;39.34;;
4048;Laerm;2038;51.728;6.674;2024-03-17T08:23:31;35.89;28.67;39.58;;
4048;Laerm;2038;51.728;6.674;2024-03-17T08:25:59;35.87;5.00;39.58;;
4048;Laerm;2038;51.728;6.674;2024-03-17T08:28:27;35.88;23.90;39.21;;
4048;Laerm;2038;51.728;6.674;2024-03-17T08:30:59;35.91;26.91;39.21;;
4048;Laerm;2038;51.728;6.674;2024-03-17T08:33:26;35.88;23.90;39.34;;
4048;Laerm;2038;51.728;6.674;2024-03-17T08:36:08;35.92;26.91;39.34;;
4048;Laerm;2038;51.728;6.674;2024-03-17T08:38:37;35.87;26.91;39.21;;
4048;Laerm;2038;51.728;6.674;2024-03-17T08:41:09;35.89;26.91;39.81;;
4048;Laerm;2038;51.728;6.674;2024-03-17T08:43:37;35.90;26.91;39.34;;
4048;Laerm;2038;51.728;6.674;2024-03-17T08:46:09;35.91;26.91;39.46;;
4048;Laerm;2038;51.728;6.674;2024-03-17T08:48:38;35.90;23.90;39.46;;
4048;Laerm;2038;51.728;6.674;2024-03-17T08:51:06;35.93;23.90;39.34;;
4048;Laerm;2038;51.728;6.674;2024-03-17T08:53:33;35.90;5.00;39.58;;
4048;Laerm;2038;51.728;6.674;2024-03-17T08:56:03;35.90;26.91;39.46;;
4048;Laerm;2038;51.728;6.674;2024-03-17T08:58:29;35.94;23.90;39.21;;
4048;Laerm;2038;51.728;6.674;2024-03-17T09:00:55;35.90;28.67;39.46;;
4048;Laerm;2038;51.728;6.674;2024-03-17T09:03:22;35.94;28.67;39.58;;
4048;Laerm;2038;51.728;6.674;2024-03-17T09:05:49;35.94;26.91;39.08;;
4048;Laerm;2038;51.728;6.674;2024-03-17T09:08:22;35.90;26.91;39.23;;
4048;Laerm;2038;51.728;6.674;2024-03-17T09:10:51;35.94;28.67;39.46;;
4048;Laerm;2038;51.728;6.674;2024-03-17T09:13:21;35.97;26.91;39.58;;
4048;Laerm;2038;51.728;6.674;2024-03-17T09:15:55;35.95;23.90;39.58;;
4048;Laerm;2038;51.728;6.674;2024-03-17T09:18:33;35.98;26.91;39.46;;
4048;Laerm;2038;51.728;6.674;2024-03-17T09:21:02;35.98;26.91;39.78;;
4048;Laerm;2038;51.728;6.674;2024-03-17T09:23:30;35.96;26.91;39.21;;
4048;Laerm;2038;51.728;6.674;2024-03-17T09:28:27;35.95;26.91;39.21;;
4048;Laerm;2038;51.728;6.674;2024-03-17T09:30:55;35.97;26.91;40.03;;
4048;Laerm;2038;51.728;6.674;2024-03-17T09:33:23;35.96;23.90;39.21;;
4048;Laerm;2038;51.728;6.674;2024-03-17T09:36:05;35.94;26.91;39.46;;
4048;Laerm;2038;51.728;6.674;2024-03-17T09:38:35;35.99;23.90;39.34;;
4048;Laerm;2038;51.728;6.674;2024-03-17T09:41:02;35.98;26.91;39.81;;
4048;Laerm;2038;51.728;6.674;2024-03-17T09:43:33;35.98;26.91;39.21;;
4048;Laerm;2038;51.728;6.674;2024-03-17T09:46:04;35.96;26.91;39.35;;
4048;Laerm;2038;51.728;6.674;2024-03-17T09:48:31;36.00;26.91;39.58;;
4048;Laerm;2038;51.728;6.674;2024-03-17T09:51:02;35.97;26.91;39.08;;
4048;Laerm;2038;51.728;6.674;2024-03-17T09:53:34;35.94;23.90;39.46;;
4048;Laerm;2038;51.728;6.674;2024-03-17T09:56:13;35.99;23.90;39.46;;
4048;Laerm;2038;51.728;6.674;2024-03-17T09:58:42;35.96;28.67;39.34;;
4048;Laerm;2038;51.728;6.674;2024-03-17T10:01:09;35.96;23.90;39.58;;
4048;Laerm;2038;51.728;6.674;2024-03-17T10:06:26;35.94;26.91;39.08;;
4048;Laerm;2038;51.728;6.674;2024-03-17T10:08:58;35.97;28.67;39.34;;
4048;Laerm;2038;51.728;6.674;2024-03-17T10:11:33;36.00;23.90;39.34;;
4048;Laerm;2038;51.728;6.674;2024-03-17T10:14:07;35.98;26.91;39.34;;
4048;Laerm;2038;51.728;6.674;2024-03-17T10:16:38;35.96;28.67;39.34;;
4048;Laerm;2038;51.728;6.674;2024-03-17T10:19:08;35.93;26.56;39.34;;
4048;Laerm;2038;51.728;6.674;2024-03-17T10:21:38;35.93;26.91;39.34;;
4048;Laerm;2038;51.728;6.674;2024-03-17T10:24:21;35.94;28.67;39.81;;
4048;Laerm;2038;51.728;6.674;2024-03-17T10:26:51;35.92;23.90;39.21;;
4048;Laerm;2038;51.728;6.674;2024-03-17T10:29:32;35.94;26.91;39.46;;
4048;Laerm;2038;51.728;6.674;2024-03-17T10:32:15;35.95;23.90;39.21;;
4048;Laerm;2038;51.728;6.674;2024-03-17T10:34:45;35.92;28.67;39.58;;
4048;Laerm;2038;51.728;6.674;2024-03-17T10:37:15;35.93;28.67;39.46;;
4048;Laerm;2038;51.728;6.674;2024-03-17T10:39:46;35.92;23.90;39.92;;
4048;Laerm;2038;51.728;6.674;2024-03-17T10:42:26;35.95;26.91;39.34;;
4048;Laerm;2038;51.728;6.674;2024-03-17T10:44:58;35.90;23.90;39.21;;
4048;Laerm;2038;51.728;6.674;2024-03-17T10:47:26;35.89;26.91;39.21;;
4048;Laerm;2038;51.728;6.674;2024-03-17T10:49:55;35.91;5.00;39.34;;
4048;Laerm;2038;51.728;6.674;2024-03-17T10:52:23;35.91;5.00;39.46;;
4048;Laerm;2038;51.728;6.674;2024-03-17T10:54:55;35.93;23.90;39.34;;
4048;Laerm;2038;51.728;6.674;2024-03-17T10:57:38;35.91;5.00;39.21;;
4048;Laerm;2038;51.728;6.674;2024-03-17T11:00:13;35.86;26.91;39.08;;
4048;Laerm;2038;51.728;6.674;2024-03-17T11:02:45;35.91;28.67;39.08;;
4048;Laerm;2038;51.728;6.674;2024-03-17T11:05:25;35.90;26.91;39.34;;
4048;Laerm;2038;51.728;6.674;2024-03-17T11:07:57;35.90;26.91;39.11;;
4048;Laerm;2038;51.728;6.674;2024-03-17T11:10:36;35.92;23.90;39.70;;
4048;Laerm;2038;51.728;6.674;2024-03-17T11:13:04;35.89;26.56;39.21;;
4048;Laerm;2038;51.728;6.674;2024-03-17T11:20:41;35.93;23.90;39.34;;
4048;Laerm;2038;51.728;6.674;2024-03-17T11:23:08;35.93;23.90;39.58;;
4048;Laerm;2038;51.728;6.674;2024-03-17T11:25:40;35.93;28.67;39.46;;
4048;Laerm;2038;51.728;6.674;2024-03-17T11:28:09;35.93;26.91;39.08;;
4048;Laerm;2038;51.728;6.674;2024-03-17T11:41:37;35.94;26.91;39.34;;
4048;Laerm;2038;51.728;6.674;2024-03-17T11:49:38;35.97;26.91;39.58;;
4048;Laerm;2038;51.728;6.674;2024-03-17T11:52:11;35.95;23.90;39.34;;
4048;Laerm;2038;51.728;6.674;2024-03-17T11:54:42;35.94;28.67;39.34;;
4048;Laerm;2038;51.728;6.674;2024-03-17T11:57:11;35.95;23.90;39.46;;
4048;Laerm;2038;51.728;6.674;2024-03-17T11:59:39;35.97;26.91;39.58;;
4048;Laerm;2038;51.728;6.674;2024-03-17T12:02:31;35.98;26.91;39.08;;
4048;Laerm;2038;51.728;6.674;2024-03-17T12:05:01;35.98;26.91;38.95;;
4048;Laerm;2038;51.728;6.674;2024-03-17T12:07:28;36.02;23.90;39.08;;
4048;Laerm;2038;51.728;6.674;2024-03-17T12:09:56;35.98;26.91;39.46;;
4048;Laerm;2038;51.728;6.674;2024-03-17T12:12:27;35.98;26.91;39.34;;
4048;Laerm;2038;51.728;6.674;2024-03-17T12:15:19;36.02;28.67;39.21;;
4048;Laerm;2038;51.728;6.674;2024-03-17T12:17:46;36.00;23.90;39.34;;
4048;Laerm;2038;51.728;6.674;2024-03-17T12:20:20;36.02;26.91;39.58;;
4048;Laerm;2038;51.728;6.674;2024-03-17T12:22:48;36.02;28.67;39.58;;
4048;Laerm;2038;51.728;6.674;2024-03-17T12:25:19;36.05;28.67;39.21;;
4048;Laerm;2038;51.728;6.674;2024-03-17T12:27:47;36.05;26.91;39.08;;
4048;Laerm;2038;51.728;6.674;2024-03-17T12:30:15;36.05;26.91;39.34;;
4048;Laerm;2038;51.728;6.674;2024-03-17T12:32:43;36.04;28.67;39.34;;
4048;Laerm;2038;51.728;6.674;2024-03-17T12:35:15;36.07;23.90;39.21;;
4048;Laerm;2038;51.728;6.674;2024-03-17T12:37:45;36.07;26.91;39.46;;
4048;Laerm;2038;51.728;6.674;2024-03-17T12:40:22;36.09;26.91;39.58;;
4048;Laerm;2038;51.728;6.674;2024-03-17T12:42:51;36.07;29.92;39.34;;
4048;Laerm;2038;51.728;6.674;2024-03-17T12:45:23;36.05;26.56;39.46;;
4048;Laerm;2038;51.728;6.674;2024-03-17T12:47:51;36.08;28.67;39.21;;
4048;Laerm;2038;51.728;6.674;2024-03-17T12:50:18;36.06;29.57;39.34;;
4048;Laerm;2038;51.728;6.674;2024-03-17T12:53:03;36.07;28.67;39.34;;
4048;Laerm;2038;51.728;6.674;2024-03-17T12:55:29;36.07;26.91;39.21;;
4048;Laerm;2038;51.728;6.674;2024-03-17T12:58:15;36.10;28.67;39.46;;
4048;Laerm;2038;51.728;6.674;2024-03-17T13:01:02;36.08;26.91;39.70;;
4048;Laerm;2038;51.728;6.674;2024-03-17T13:03:37;36.11;29.92;39.23;;
4048;Laerm;2038;51.728;6.674;2024-03-17T13:06:09;36.10;23.90;39.34;;
4048;Laerm;2038;51.728;6.674;2024-03-17T13:08:40;36.14;28.67;39.34;;
4048;Laerm;2038;51.728;6.674;2024-03-17T13:11:19;36.13;28.67;39.21;;
4048;Laerm;2038;51.728;6.674;2024-03-17T13:13:46;36.13;28.67;39.89;;
4048;Laerm;2038;51.728;6.674;2024-03-17T13:16:16;36.11;26.91;39.21;;
4048;Laerm;2038;51.728;6.674;2024-03-17T13:18:46;36.12;28.67;39.34;;
4048;Laerm;2038;51.728;6.674;2024-03-17T13:21:16;36.18;28.67;39.46;;
4048;Laerm;2038;51.728;6.674;2024-03-17T13:23:43;36.12;26.91;39.34;;
4048;Laerm;2038;51.728;6.674;2024-03-17T13:26:11;36.09;5.00;39.08;;
4048;Laerm;2038;51.728;6.674;2024-03-17T13:28:44;36.11;29.92;39.34;;
4048;Laerm;2038;51.728;6.674;2024-03-17T17:40:01;35.94;26.91;39.46;;
4048;Laerm;2038;51.728;6.674;2024-03-17T17:42:28;35.92;26.91;38.95;;
4048;Laerm;2038;51.728;6.674;2024-03-17T17:44:54;35.94;28.32;39.92;;
4048;Laerm;2038;51.728;6.674;2024-03-17T17:47:20;35.94;5.00;39.58;;
4048;Laerm;2038;51.728;6.674;2024-03-17T17:49:47;35.94;26.91;39.21;;
4048;Laerm;2038;51.728;6.674;2024-03-17T17:52:15;35.92;26.91;39.46;;
4048;Laerm;2038;51.728;6.674;2024-03-17T17:54:48;35.92;26.91;39.58;;
4048;Laerm;2038;51.728;6.674;2024-03-17T17:57:25;35.97;28.67;39.34;;
4048;Laerm;2038;51.728;6.674;2024-03-17T18:03:12;35.95;5.00;39.21;;
4048;Laerm;2038;51.728;6.674;2024-03-17T18:05:57;35.96;28.32;39.08;;
4048;Laerm;2038;51.728;6.674;2024-03-17T18:08:45;35.92;28.67;39.08;;
4048;Laerm;2038;51.728;6.674;2024-03-17T18:11:36;35.96;26.91;39.58;;
4048;Laerm;2038;51.728;6.674;2024-03-17T18:14:27;36.00;26.91;39.34;;
4048;Laerm;2038;51.728;6.674;2024-03-17T18:17:12;36.03;26.91;39.21;;
4048;Laerm;2038;51.728;6.674;2024-03-17T18:19:57;36.09;26.91;39.34;;
4048;Laerm;2038;51.728;6.674;2024-03-17T18:22:44;36.11;26.91;39.46;;
4048;Laerm;2038;51.728;6.674;2024-03-17T18:25:30;36.18;28.67;39.46;;
4048;Laerm;2038;51.728;6.674;2024-03-17T18:28:49;36.23;23.90;39.34;;
4048;Laerm;2038;51.728;6.674;2024-03-17T18:31:53;36.22;23.90;39.34;;
4048;Laerm;2038;51.728;6.674;2024-03-17T18:34:40;36.24;26.91;39.21;;
4048;Laerm;2038;51.728;6.674;2024-03-17T18:37:18;36.24;26.91;39.46;;
4048;Laerm;2038;51.728;6.674;2024-03-17T18:39:53;36.22;26.91;39.58;;
4048;Laerm;2038;51.728;6.674;2024-03-17T18:45:49;36.19;26.91;39.70;;
4048;Laerm;2038;51.728;6.674;2024-03-17T18:48:20;36.20;28.67;39.34;;
4048;Laerm;2038;51.728;6.674;2024-03-17T18:50:57;36.22;28.67;39.58;;
4048;Laerm;2038;51.728;6.674;2024-03-17T18:53:26;36.21;28.67;39.58;;
4048;Laerm;2038;51.728;6.674;2024-03-17T18:59:06;36.15;28.67;39.92;;
4048;Laerm;2038;51.728;6.674;2024-03-17T19:01:55;36.15;26.56;39.70;;
4048;Laerm;2038;51.728;6.674;2024-03-17T19:04:36;36.13;28.67;39.58;;
4048;Laerm;2038;51.728;6.674;2024-03-17T19:07:27;36.14;26.91;39.34;;
4048;Laerm;2038;51.728;6.674;2024-03-17T19:10:01;36.09;28.32;39.34;;
4048;Laerm;2038;51.728;6.674;2024-03-17T19:12:33;36.07;26.91;39.34;;